Time;durP1;ratioP1;P1;durP2;ratioP2;P2;SDS_P1;SDS_P2;PMS_P1;PMS_P2;Temp;Humidity;BMP_temperature;BMP_pressure;BME280_temperature;BME280_humidity;BME280_pressure;Samples;Min_cycle;Max_cycle;Signal;HPM_P1;HPM_P2
2022/12/21 00:01:23;;;;;;;8.32;4.40;;;;;;;9.53;60.96;100696.69;5075912;28;20102;-80
2022/12/21 00:03:54;;;;;;;6.65;4.93;;;;;;;9.54;61.24;100690.22;5062869;28;20040;-79
2022/12/21 00:06:23;;;;;;;6.22;4.05;;;;;;;9.54;61.21;100686.63;5080752;28;20044;-78
2022/12/21 00:08:53;;;;;;;6.00;4.70;;;;;;;9.56;60.81;100685.50;5064681;28;20040;-80
2022/12/21 00:11:23;;;;;;;6.05;4.00;;;;;;;9.57;61.13;100697.28;5062240;28;20045;-79
2022/12/21 00:13:52;;;;;;;5.93;4.22;;;;;;;9.58;60.90;100699.00;5062784;28;20128;-80
2022/12/21 00:16:22;;;;;;;6.07;4.38;;;;;;;9.59;61.13;100701.59;5063823;28;20044;-79
2022/12/21 00:18:51;;;;;;;7.03;4.18;;;;;;;9.58;61.00;100697.13;5063344;28;20048;-79
2022/12/21 00:21:21;;;;;;;5.78;4.20;;;;;;;9.61;61.17;100694.16;5064861;28;20041;-80
2022/12/21 00:23:51;;;;;;;4.55;3.72;;;;;;;9.62;60.96;100695.88;5079374;28;20175;-79
2022/12/21 00:26:23;;;;;;;4.38;3.40;;;;;;;9.62;61.28;100690.44;5072586;28;20040;-79
2022/12/21 00:28:53;;;;;;;5.38;3.70;;;;;;;9.62;61.25;100684.09;5073836;28;20086;-79
2022/12/21 00:31:23;;;;;;;5.18;3.58;;;;;;;9.63;61.00;100689.44;5069608;28;20048;-80
2022/12/21 00:33:53;;;;;;;4.80;3.47;;;;;;;9.63;61.09;100692.16;5061032;28;20527;-80
2022/12/21 00:36:23;;;;;;;5.47;3.58;;;;;;;9.65;60.90;100683.84;5071183;28;20047;-80
2022/12/21 00:38:51;;;;;;;4.80;3.60;;;;;;;9.65;61.21;100679.25;5067558;28;20040;-80
2022/12/21 00:41:22;;;;;;;5.13;3.67;;;;;;;9.66;60.80;100685.56;5072177;28;20048;-81
2022/12/21 00:43:52;;;;;;;4.68;3.10;;;;;;;9.66;60.86;100680.94;5070581;28;20087;-80
2022/12/21 00:46:23;;;;;;;4.78;3.10;;;;;;;9.67;61.14;100668.16;5079201;28;20392;-80
2022/12/21 00:48:51;;;;;;;4.85;3.50;;;;;;;9.67;61.02;100668.16;5075042;28;20112;-80
2022/12/21 00:51:21;;;;;;;6.82;3.40;;;;;;;9.69;61.30;100671.63;5076332;28;20067;-79
2022/12/21 00:53:50;;;;;;;5.03;3.50;;;;;;;9.68;61.08;100667.16;5067866;28;20140;-79
2022/12/21 00:56:19;;;;;;;5.50;3.28;;;;;;;9.68;61.18;100673.50;5071992;28;20106;-80
2022/12/21 00:58:48;;;;;;;6.00;3.55;;;;;;;9.68;61.11;100676.22;5072427;28;20045;-79
2022/12/21 01:01:19;;;;;;;5.95;3.20;;;;;;;9.69;61.08;100671.63;5093728;28;20132;-79
2022/12/21 01:03:47;;;;;;;6.80;3.65;;;;;;;9.67;61.06;100669.03;5085859;28;20494;-81
2022/12/21 01:06:18;;;;;;;5.95;3.40;;;;;;;9.70;61.35;100673.38;5073796;28;20056;-81
2022/12/21 01:08:46;;;;;;;6.78;3.80;;;;;;;9.69;61.00;100668.91;5063629;28;20048;-80
2022/12/21 01:11:18;;;;;;;4.32;3.22;;;;;;;9.69;60.82;100675.22;5070502;28;20056;-80
2022/12/21 01:13:47;;;;;;;5.15;3.58;;;;;;;9.69;60.94;100680.69;5077269;28;20115;-81
2022/12/21 01:16:18;;;;;;;5.80;3.80;;;;;;;9.71;61.30;100689.63;5067887;28;20487;-79
2022/12/21 01:18:47;;;;;;;5.60;3.95;;;;;;;9.70;61.24;100695.22;5088809;28;20283;-79
2022/12/21 01:21:16;;;;;;;5.55;3.70;;;;;;;9.71;61.34;100703.28;5069634;28;20052;-79
2022/12/21 01:23:44;;;;;;;5.22;3.63;;;;;;;9.70;61.29;100697.97;5074815;28;20127;-80
2022/12/21 01:26:13;;;;;;;5.43;4.00;;;;;;;9.70;61.05;100704.28;5061381;28;20149;-79
2022/12/21 01:28:42;;;;;;;4.82;3.40;;;;;;;9.71;61.06;100710.63;5092923;28;20067;-80
2022/12/21 01:31:10;;;;;;;6.43;4.50;;;;;;;9.70;61.35;100712.50;5072561;28;20044;-80
2022/12/21 01:33:40;;;;;;;5.68;3.90;;;;;;;9.72;61.11;100713.22;5068612;28;20036;-79
2022/12/21 01:36:12;;;;;;;5.10;3.92;;;;;;;9.72;60.95;100715.09;5067546;28;20074;-80
2022/12/21 01:38:42;;;;;;;6.03;4.55;;;;;;;9.70;61.42;100717.09;5098296;28;20049;-79
2022/12/21 01:41:14;;;;;;;6.28;4.47;;;;;;;9.72;60.81;100715.09;5065071;28;20048;-80
2022/12/21 01:43:46;;;;;;;6.35;4.30;;;;;;;9.73;61.02;100711.38;5076891;28;20486;-80
2022/12/21 01:46:19;;;;;;;5.60;3.92;;;;;;;9.72;60.82;100713.22;5070703;28;20415;-79
2022/12/21 01:48:54;;;;;;;7.00;4.50;;;;;;;9.73;61.25;100714.09;5073350;28;20063;-79
2022/12/21 01:51:23;;;;;;;6.53;4.70;;;;;;;9.70;61.06;100706.16;5058716;28;20048;-80
2022/12/21 01:53:55;;;;;;;6.78;4.43;;;;;;;9.71;61.17;100708.75;5076208;28;20059;-80
2022/12/21 01:56:29;;;;;;;6.95;4.60;;;;;;;9.71;60.95;100716.09;5089356;28;20048;-79
2022/12/21 01:58:59;;;;;;;6.75;4.55;;;;;;;9.70;61.23;100717.94;5071961;28;20056;-79
2022/12/21 02:01:30;;;;;;;7.75;5.13;;;;;;;9.70;60.97;100720.69;5076055;28;20062;-80
2022/12/21 02:04:00;;;;;;;8.48;5.28;;;;;;;9.70;61.21;100714.34;5057963;28;20124;-79
2022/12/21 02:06:33;;;;;;;7.70;5.13;;;;;;;9.69;61.30;100713.47;5071360;28;20051;-80
2022/12/21 02:09:01;;;;;;;;;;;;;;;9.43;61.44;100704.78;5062261;28;20044;-80
2022/12/21 02:11:31;;;;;;;7.18;4.38;;;;;;;9.64;61.58;100707.56;5069222;28;19920;-80
2022/12/21 02:13:59;;;;;;;7.20;4.78;;;;;;;9.66;61.09;100700.06;5068783;23;20067;-82
2022/12/21 02:16:42;;;;;;;8.05;5.07;;;;;;;9.70;61.41;100703.41;5027011;28;20045;-82
2022/12/21 02:19:59;;;;;;;7.13;4.47;;;;;;;9.66;60.99;100697.34;5028765;28;20041;-81
2022/12/21 02:22:41;;;;;;;6.57;4.35;;;;;;;9.69;61.51;100710.75;5028951;28;20050;-79
2022/12/21 02:25:30;;;;;;;7.03;4.88;;;;;;;9.71;61.00;100711.50;5040693;28;20513;-81
2022/12/21 02:28:35;;;;;;;7.30;4.95;;;;;;;9.70;60.83;100720.69;5059133;28;20510;-80
2022/12/21 02:31:16;;;;;;;7.10;4.95;;;;;;;9.72;61.33;100715.09;5032908;28;20041;-80
2022/12/21 02:34:03;;;;;;;8.80;5.88;;;;;;;9.71;60.95;100722.41;5044963;28;20049;-81
2022/12/21 02:36:44;;;;;;;9.32;5.50;;;;;;;9.72;61.38;100717.81;5036156;28;20067;-82
2022/12/21 02:39:20;;;;;;;8.63;5.43;;;;;;;9.72;61.11;100715.09;5057847;28;20094;-82
2022/12/21 02:41:59;;;;;;;7.47;5.13;;;;;;;9.74;61.43;100724.03;5055173;28;20101;-82
2022/12/21 02:44:46;;;;;;;8.10;5.53;;;;;;;9.74;61.27;100710.38;5058475;28;20043;-81
2022/12/21 02:47:23;;;;;;;7.95;5.65;;;;;;;9.73;60.99;100712.22;5050099;28;20056;-82
2022/12/21 02:50:01;;;;;;;7.25;5.35;;;;;;;9.73;61.44;100717.69;5042805;28;20044;-82
2022/12/21 02:52:36;;;;;;;9.82;5.75;;;;;;;9.73;61.27;100701.31;5041799;28;20049;-81
2022/12/21 02:55:06;;;;;;;7.70;5.30;;;;;;;9.73;61.17;100706.78;5039281;28;20079;-79
2022/12/21 02:57:36;;;;;;;8.77;5.20;;;;;;;9.74;61.18;100705.75;5059977;28;20060;-79
2022/12/21 03:00:09;;;;;;;7.60;5.28;;;;;;;9.75;61.06;100709.34;5052656;28;20128;-81
2022/12/21 03:05:53;;;;;;;8.43;5.20;;;;;;;9.75;61.27;100709.34;5049815;28;20079;-81
2022/12/21 03:08:35;;;;;;;9.40;5.85;;;;;;;9.76;61.01;100711.94;5051644;28;20321;-82
2022/12/21 03:11:06;;;;;;;8.63;6.15;;;;;;;9.73;61.64;100714.97;5049742;28;20131;-81
2022/12/21 03:13:44;;;;;;;8.27;5.90;;;;;;;9.76;61.36;100705.63;5040430;28;20040;-81
2022/12/21 03:16:16;;;;;;;8.63;5.78;;;;;;;9.77;61.27;100701.88;5042820;28;20049;-80
2022/12/21 03:18:58;;;;;;;9.30;5.68;;;;;;;9.76;61.19;100697.41;5050364;28;20072;-80
2022/12/21 03:21:32;;;;;;;8.48;5.93;;;;;;;9.76;61.32;100690.09;5038761;28;20060;-81
2022/12/21 03:24:05;;;;;;;8.48;5.68;;;;;;;9.76;61.28;100684.63;5053598;28;20048;-81
2022/12/21 03:26:37;;;;;;;8.77;5.68;;;;;;;9.77;61.23;100680.03;5048182;28;20468;-81
2022/12/21 03:29:08;;;;;;;8.80;5.90;;;;;;;9.76;61.04;100673.69;5041642;28;20055;-81
2022/12/21 03:31:41;;;;;;;9.45;6.10;;;;;;;9.77;61.19;100672.69;5063148;28;20071;-81
2022/12/21 03:34:16;;;;;;;8.60;5.88;;;;;;;9.78;61.11;100685.38;5052720;28;20135;-81
2022/12/21 03:36:49;;;;;;;8.98;5.57;;;;;;;9.77;61.35;100680.03;5048595;28;20163;-81
2022/12/21 03:39:20;;;;;;;;;;;;;;;9.51;61.87;100676.81;5056672;28;20048;-81
2022/12/21 03:41:52;;;;;;;7.68;4.68;;;;;;;9.74;61.25;100683.03;5061909;28;19920;-82
2022/12/21 03:44:28;;;;;;;8.85;5.38;;;;;;;9.79;60.99;100678.03;5044854;28;20074;-81
2022/12/21 03:46:59;;;;;;;8.48;5.63;;;;;;;9.78;61.06;100674.44;5046532;28;20059;-81
2022/12/21 03:49:33;;;;;;;9.75;5.68;;;;;;;9.77;61.47;100669.97;5041234;28;20048;-81
2022/12/21 03:52:06;;;;;;;8.43;5.40;;;;;;;9.79;61.33;100681.63;5040151;28;20502;-82
2022/12/21 03:54:42;;;;;;;8.50;5.60;;;;;;;9.79;61.07;100665.22;5065705;28;20098;-79
2022/12/21 03:57:11;;;;;;;8.55;5.72;;;;;;;9.78;61.42;100668.97;5054306;28;20041;-80
2022/12/21 03:59:43;;;;;;;10.02;6.25;;;;;;;9.80;61.11;100660.63;5037114;28;20125;-81
2022/12/21 04:02:18;;;;;;;9.70;5.82;;;;;;;9.79;61.12;100653.44;5039457;28;20120;-81
2022/12/21 04:04:53;;;;;;;8.60;5.63;;;;;;;9.80;61.30;100650.56;5049491;28;20045;-81
2022/12/21 04:07:25;;;;;;;9.73;5.78;;;;;;;9.79;61.27;100653.44;5056942;28;20055;-81
2022/12/21 04:09:58;;;;;;;8.30;5.80;;;;;;;9.79;61.34;100647.97;5060491;28;20041;-80
2022/12/21 04:12:39;;;;;;;11.10;6.43;;;;;;;9.78;61.10;100647.09;5058813;28;20049;-81
2022/12/21 04:15:11;;;;;;;9.05;5.50;;;;;;;9.78;61.14;100644.38;5057693;28;20466;-81
2022/12/21 04:17:41;;;;;;;9.40;6.22;;;;;;;9.79;61.17;100639.78;5043195;28;20407;-81
2022/12/21 04:20:12;;;;;;;9.63;5.55;;;;;;;9.80;61.16;100633.31;5050993;28;20045;-80
2022/12/21 04:28:22;;;;;;;11.88;6.78;;;;;;;9.77;61.46;100623.50;5055465;28;20077;-80
2022/12/21 04:31:10;;;;;;;8.48;5.57;;;;;;;9.76;61.58;100629.09;5036832;28;20045;-81
2022/12/21 04:33:38;;;;;;;12.68;6.57;;;;;;;9.78;61.46;100635.28;5056109;28;20040;-80
2022/12/21 04:38:53;;;;;;;8.20;5.28;;;;;;;9.77;61.41;100630.81;5071292;28;20058;-80
2022/12/21 04:41:21;;;;;;;9.32;5.60;;;;;;;9.76;61.35;100634.56;5055393;28;20064;-80
2022/12/21 04:43:49;;;;;;;9.05;6.05;;;;;;;9.77;61.11;100639.03;5038255;28;20078;-81
2022/12/21 04:46:18;;;;;;;8.48;5.40;;;;;;;9.79;61.54;100646.09;5053751;28;20037;-81
2022/12/21 04:48:46;;;;;;;8.95;5.60;;;;;;;9.77;61.64;100636.28;5040953;28;20059;-80
2022/12/21 04:51:17;;;;;;;9.68;5.80;;;;;;;9.80;61.51;100638.78;5040199;28;20118;-81
2022/12/21 04:53:45;;;;;;;9.02;5.93;;;;;;;9.78;61.68;100633.44;5067385;28;20044;-81
2022/12/21 04:56:13;;;;;;;8.43;5.45;;;;;;;9.79;61.45;100634.31;5036441;28;20033;-80
2022/12/21 04:58:42;;;;;;;7.90;4.97;;;;;;;9.79;61.19;100645.22;5071201;28;20068;-80
2022/12/21 05:01:10;;;;;;;8.95;5.60;;;;;;;9.79;61.65;100651.56;5043467;28;20466;-81
2022/12/21 05:03:39;;;;;;;8.38;5.55;;;;;;;9.79;61.19;100642.50;5050115;28;20041;-81
2022/12/21 05:06:08;;;;;;;9.10;5.68;;;;;;;9.80;61.53;100641.50;5049061;28;20049;-79
2022/12/21 05:08:37;;;;;;;8.00;5.13;;;;;;;9.80;61.11;100633.31;5035644;28;20049;-81
2022/12/21 05:11:14;;;;;;;7.63;5.28;;;;;;;9.81;61.02;100638.63;5063291;28;20048;-81
2022/12/21 05:13:43;;;;;;;8.02;5.28;;;;;;;9.79;61.55;100634.31;5039710;28;20064;-80
2022/12/21 05:16:12;;;;;;;8.00;5.05;;;;;;;9.80;61.55;100633.31;5065328;28;20552;-78
2022/12/21 05:18:40;;;;;;;8.65;5.18;;;;;;;9.78;61.56;100633.44;5056089;28;20037;-80
2022/12/21 05:21:08;;;;;;;7.95;4.93;;;;;;;9.79;61.59;100637.91;5046693;28;20447;-81
2022/12/21 05:23:38;;;;;;;8.32;5.18;;;;;;;9.79;61.20;100631.56;5046975;28;20045;-79
2022/12/21 05:26:07;;;;;;;9.00;5.68;;;;;;;9.79;61.06;100637.03;5041284;28;20048;-80
2022/12/21 05:28:43;;;;;;;8.18;5.35;;;;;;;9.78;61.47;100638.91;5054898;28;20044;-80
2022/12/21 05:31:13;;;;;;;8.52;5.57;;;;;;;9.78;61.42;100636.16;5054586;28;20049;-78
2022/12/21 05:33:41;;;;;;;6.80;4.43;;;;;;;9.77;61.15;100637.16;5052513;28;20056;-80
2022/12/21 05:36:11;;;;;;;8.45;5.72;;;;;;;9.79;61.55;100640.63;5040588;28;20079;-79
2022/12/21 05:38:40;;;;;;;8.95;5.63;;;;;;;9.79;61.41;100637.91;5072884;28;20044;-80
2022/12/21 05:41:09;;;;;;;8.82;5.57;;;;;;;9.78;61.55;100635.28;5047326;28;20068;-80
2022/12/21 05:43:36;;;;;;;7.97;5.40;;;;;;;9.78;61.19;100636.16;5062541;28;20037;-80
2022/12/21 05:46:06;;;;;;;9.13;5.50;;;;;;;9.79;61.12;100631.56;5059561;28;20049;-81
2022/12/21 05:48:35;;;;;;;8.07;4.82;;;;;;;9.78;61.29;100638.03;5057492;28;20522;-80
2022/12/21 05:51:07;;;;;;;8.55;5.38;;;;;;;9.79;61.03;100634.31;5043107;28;20082;-79
2022/12/21 05:53:34;;;;;;;9.65;5.93;;;;;;;9.78;61.17;100627.09;5040080;28;20136;-80
2022/12/21 05:56:04;;;;;;;9.38;6.07;;;;;;;9.78;61.41;100619.78;5073742;28;20044;-81
2022/12/21 05:58:32;;;;;;;11.90;6.50;;;;;;;9.77;61.35;100619.91;5047906;28;20371;-78
2022/12/21 06:01:01;;;;;;;9.77;6.40;;;;;;;9.78;61.54;100605.22;5047828;28;20068;-79
2022/12/21 06:03:29;;;;;;;9.02;5.97;;;;;;;9.77;61.18;100608.97;5071492;28;20045;-78
2022/12/21 06:06:02;;;;;;;10.27;6.50;;;;;;;9.79;61.40;100605.09;5054131;28;20049;-83
2022/12/21 06:08:31;;;;;;;8.13;5.93;;;;;;;9.78;61.24;100607.97;5071084;28;20044;-80
2022/12/21 06:11:06;;;;;;;8.50;5.70;;;;;;;9.78;61.07;100608.84;5054054;28;20441;-79
2022/12/21 06:13:34;;;;;;;8.80;5.70;;;;;;;9.76;61.23;100612.69;5051594;28;20123;-80
2022/12/21 06:16:06;;;;;;;8.55;5.70;;;;;;;9.78;61.24;100610.69;5052734;28;20040;-81
2022/12/21 06:18:34;;;;;;;9.88;5.57;;;;;;;9.77;61.18;100608.97;5065514;28;20111;-80
2022/12/21 06:21:03;;;;;;;10.13;5.97;;;;;;;9.77;61.67;100608.97;5036121;28;20049;-80
2022/12/21 06:23:31;;;;;;;9.52;5.68;;;;;;;9.77;61.54;100612.56;5061963;28;20048;-79
2022/12/21 06:26:00;;;;;;;9.02;5.70;;;;;;;9.78;61.39;100613.44;5044536;28;20041;-79
2022/12/21 06:28:30;;;;;;;7.93;5.05;;;;;;;9.78;61.53;100614.31;5047990;28;20040;-79
2022/12/21 06:31:06;;;;;;;9.32;5.35;;;;;;;9.80;61.16;100608.72;5066030;28;20392;-80
2022/12/21 06:33:36;;;;;;;8.75;5.43;;;;;;;9.77;61.43;100615.28;5041060;28;20040;-79
2022/12/21 06:36:05;;;;;;;7.47;5.07;;;;;;;9.79;61.69;100615.16;5041902;28;20087;-78
2022/12/21 06:38:34;;;;;;;8.63;5.82;;;;;;;9.79;61.45;100623.38;5065265;28;20032;-80
2022/12/21 06:41:04;;;;;;;8.45;5.85;;;;;;;9.80;61.31;100616.91;5041697;28;20423;-79
2022/12/21 06:43:38;;;;;;;8.40;5.82;;;;;;;9.80;61.23;100614.16;5063068;28;20036;-82
2022/12/21 06:46:08;;;;;;;8.63;5.63;;;;;;;9.79;61.14;100613.31;5051993;28;20043;-81
2022/12/21 06:48:37;;;;;;;8.77;5.55;;;;;;;9.79;61.11;100616.03;5060247;28;20128;-79
2022/12/21 06:51:07;;;;;;;9.05;5.65;;;;;;;9.80;61.35;100614.16;5042270;28;20056;-79
2022/12/21 06:53:37;;;;;;;8.55;5.47;;;;;;;9.80;61.03;100615.03;5047291;28;20075;-80
2022/12/21 06:56:07;;;;;;;8.35;5.63;;;;;;;9.80;61.31;100622.38;5069680;28;20036;-81
2022/12/21 06:58:45;;;;;;;8.77;5.55;;;;;;;9.79;61.32;100626.97;5052151;28;20086;-81
2022/12/21 07:01:15;;;;;;;8.30;5.80;;;;;;;9.80;60.99;100608.72;5054461;28;20049;-81
2022/12/21 07:03:43;;;;;;;9.23;5.22;;;;;;;9.78;61.04;100616.16;5065525;28;20040;-81
2022/12/21 07:06:13;;;;;;;8.85;5.35;;;;;;;9.78;60.98;100616.16;5058286;28;20063;-81
2022/12/21 07:08:41;;;;;;;7.85;4.93;;;;;;;9.77;61.18;100620.75;5045255;28;20053;-80
2022/12/21 07:11:12;;;;;;;7.47;5.13;;;;;;;9.78;61.01;100624.38;5037082;28;20048;-80
2022/12/21 07:13:42;;;;;;;8.07;5.05;;;;;;;9.76;61.21;100621.75;5064018;28;20051;-81
2022/12/21 07:16:12;;;;;;;7.90;5.22;;;;;;;9.76;61.23;100624.50;5047520;28;20080;-80
2022/12/21 07:18:41;;;;;;;8.32;5.22;;;;;;;9.75;60.89;100636.41;5037244;28;20135;-80
2022/12/21 07:21:11;;;;;;;10.13;5.65;;;;;;;9.75;60.85;100627.34;5043698;28;20060;-81
2022/12/21 07:23:41;;;;;;;7.90;5.25;;;;;;;9.75;61.08;100627.34;5041789;28;20098;-80
2022/12/21 07:26:11;;;;;;;6.90;4.57;;;;;;;9.73;61.51;100623.91;5040952;28;20059;-78
2022/12/21 07:28:39;;;;;;;7.32;4.60;;;;;;;9.72;61.46;100633.97;5040620;28;20617;-80
2022/12/21 07:31:09;;;;;;;6.60;4.63;;;;;;;9.73;60.88;100624.78;5035868;28;20056;-80
2022/12/21 07:33:40;;;;;;;6.97;4.38;;;;;;;9.72;60.86;100631.25;5058945;28;20036;-80
2022/12/21 07:36:10;;;;;;;5.82;3.95;;;;;;;9.71;60.92;100634.09;5038668;28;20439;-79
2022/12/21 07:38:40;;;;;;;5.68;3.83;;;;;;;9.71;61.47;100640.44;5038913;28;20059;-79
2022/12/21 07:41:10;;;;;;;5.70;3.72;;;;;;;9.70;61.30;100644.16;5053828;28;20377;-80
2022/12/21 07:43:38;;;;;;;7.25;4.35;;;;;;;9.69;61.46;100645.16;5053529;28;20047;-79
2022/12/21 07:46:26;;;;;;;5.80;3.55;;;;;;;9.67;60.96;100640.81;5032542;28;20044;-80
2022/12/21 07:48:59;;;;;;;6.53;3.92;;;;;;;9.69;61.42;100649.75;5043920;28;20076;-79
2022/12/21 07:51:26;;;;;;;6.63;4.10;;;;;;;9.68;61.50;100650.75;5043444;28;20054;-79
2022/12/21 07:53:54;;;;;;;6.75;4.25;;;;;;;9.67;61.23;100657.22;5037975;28;20482;-78
2022/12/21 07:56:22;;;;;;;8.02;4.40;;;;;;;9.68;61.14;100658.97;5062282;28;20115;-81
2022/12/21 07:58:50;;;;;;;7.93;4.57;;;;;;;9.66;61.56;100664.56;5049974;28;20477;-80
2022/12/21 08:01:20;;;;;;;8.48;4.80;;;;;;;9.67;61.12;100658.09;5034817;28;20508;-79
2022/12/21 08:03:49;;;;;;;8.20;4.70;;;;;;;9.66;61.44;100675.47;5068694;28;20067;-80
2022/12/21 08:06:18;;;;;;;7.65;4.60;;;;;;;9.68;61.13;100680.81;5060204;28;20538;-78
2022/12/21 08:08:46;;;;;;;7.13;4.55;;;;;;;9.66;61.32;100678.22;5062947;28;20112;-80
2022/12/21 08:11:17;;;;;;;7.45;4.90;;;;;;;9.67;60.96;100679.94;5044511;28;20040;-78
2022/12/21 08:13:45;;;;;;;7.00;4.70;;;;;;;9.66;61.49;100680.94;5061345;28;20047;-79
2022/12/21 08:16:15;;;;;;;6.68;4.55;;;;;;;9.67;61.50;100682.69;5057022;28;20044;-78
2022/12/21 08:18:44;;;;;;;6.15;4.35;;;;;;;9.66;61.28;100680.94;5042517;28;20045;-80
2022/12/21 08:21:12;;;;;;;7.30;4.30;;;;;;;9.67;61.15;100663.56;5044098;28;20051;-79
2022/12/21 08:23:41;;;;;;;6.63;4.70;;;;;;;9.69;61.28;100667.03;5060542;28;20040;-80
2022/12/21 08:26:11;;;;;;;5.78;4.15;;;;;;;9.69;61.23;100661.56;5052389;28;20063;-79
2022/12/21 08:28:39;;;;;;;6.80;4.60;;;;;;;9.68;61.55;100669.88;5054941;28;20128;-80
2022/12/21 08:31:10;;;;;;;6.45;4.38;;;;;;;9.71;61.44;100680.56;5069037;28;20099;-80
2022/12/21 08:33:41;;;;;;;7.45;4.82;;;;;;;9.69;61.50;100683.44;5048674;28;20064;-80
2022/12/21 08:36:10;;;;;;;6.35;4.35;;;;;;;9.70;61.39;100681.56;5045809;28;20057;-80
2022/12/21 08:38:38;;;;;;;6.22;4.30;;;;;;;9.70;61.34;100682.44;5054750;28;20128;-81
2022/12/21 08:41:27;;;;;;;6.32;4.25;;;;;;;9.70;61.40;100690.63;5050869;28;20116;-81
2022/12/21 08:43:55;;;;;;;6.25;4.43;;;;;;;9.72;61.56;100690.50;5068716;28;20048;-81
2022/12/21 08:46:23;;;;;;;6.03;3.92;;;;;;;9.72;61.36;100690.50;5056252;28;20048;-79
2022/12/21 08:48:53;;;;;;;5.63;3.92;;;;;;;9.73;61.39;100694.97;5039754;28;20044;-78
2022/12/21 08:51:21;;;;;;;5.78;4.20;;;;;;;9.74;61.86;100696.72;5064492;28;20140;-80
2022/12/21 08:53:49;;;;;;;6.28;4.03;;;;;;;9.74;61.43;100685.78;5058868;28;20036;-80
2022/12/21 08:56:20;;;;;;;5.22;3.85;;;;;;;9.74;61.33;100694.81;5063891;28;20040;-79
2022/12/21 08:58:49;;;;;;;6.90;4.50;;;;;;;9.77;61.58;100693.69;5052115;28;20037;-80
2022/12/21 09:01:19;;;;;;;5.55;4.03;;;;;;;9.77;61.43;100691.81;5054042;28;20040;-79
2022/12/21 09:03:47;;;;;;;6.68;4.13;;;;;;;9.77;61.69;100702.75;5044021;28;20384;-79
2022/12/21 09:06:15;;;;;;;6.32;4.53;;;;;;;9.78;61.64;100703.63;5060663;28;20367;-79
2022/12/21 09:08:43;;;;;;;7.28;4.40;;;;;;;9.79;61.49;100705.38;5040591;28;20041;-80
2022/12/21 09:11:13;;;;;;;6.15;4.38;;;;;;;9.80;61.41;100705.22;5044893;28;20037;-81
2022/12/21 09:13:42;;;;;;;7.88;4.32;;;;;;;9.80;61.82;100704.38;5039402;28;20048;-80
2022/12/21 09:16:15;;;;;;;8.23;4.93;;;;;;;9.82;61.03;100702.38;5045783;28;20427;-79
2022/12/21 09:18:43;;;;;;;;;;;;;;;9.55;61.95;100712.94;5048371;28;20123;-80
2022/12/21 09:21:11;;;;;;;6.88;4.30;;;;;;;9.77;61.34;100705.50;5049850;28;20423;-82
2022/12/21 09:23:39;;;;;;;7.18;4.20;;;;;;;9.80;61.34;100705.22;5066536;28;20071;-78
2022/12/21 09:26:08;;;;;;;8.35;4.60;;;;;;;9.82;61.20;100710.56;5050082;28;20069;-80
2022/12/21 09:28:37;;;;;;;8.00;4.65;;;;;;;9.83;61.06;100720.47;5043456;28;20055;-81
2022/12/21 09:31:09;;;;;;;8.30;4.85;;;;;;;9.84;61.07;100719.47;5060104;28;20049;-82
2022/12/21 09:33:40;;;;;;;9.20;4.55;;;;;;;9.81;61.21;100727.97;5049469;28;20115;-78
2022/12/21 09:36:09;;;;;;;9.80;5.45;;;;;;;9.81;60.96;100737.03;5046405;28;20056;-82
2022/12/21 09:38:37;;;;;;;10.85;5.80;;;;;;;9.80;61.25;100740.75;5054924;28;20036;-80
2022/12/21 09:41:23;;;;;;;10.82;5.50;;;;;;;9.81;60.86;100742.50;5051259;28;20330;-81
2022/12/21 09:44:02;;;;;;;13.40;6.65;;;;;;;9.78;60.99;100737.28;5052406;28;20048;-78
2022/12/21 09:46:30;;;;;;;12.60;6.68;;;;;;;9.75;61.13;100737.53;5052363;28;20037;-81
2022/12/21 09:49:06;;;;;;;14.18;7.32;;;;;;;9.75;61.04;100734.81;5048054;28;20111;-79
2022/12/21 09:51:37;;;;;;;14.57;7.22;;;;;;;9.74;61.02;100741.28;5066296;28;20087;-81
2022/12/21 09:54:08;;;;;;;15.18;7.32;;;;;;;9.73;61.27;100747.75;5071043;28;20399;-80
2022/12/21 09:56:42;;;;;;;14.20;7.57;;;;;;;9.72;60.69;100754.22;5041901;28;20055;-79
2022/12/21 09:59:13;;;;;;;14.60;7.35;;;;;;;9.71;60.78;100752.50;5042802;28;20120;-82
2022/12/21 10:01:46;;;;;;;13.90;7.20;;;;;;;9.72;61.26;100758.81;5068576;28;20053;-82
2022/12/21 10:04:31;;;;;;;12.77;7.13;;;;;;;9.71;60.57;100765.28;5041587;28;20518;-80
2022/12/21 10:07:43;;;;;;;11.70;6.68;;;;;;;9.70;60.68;100766.28;5049809;28;20037;-79
2022/12/21 10:10:20;;;;;;;13.07;6.38;;;;;;;9.69;60.87;100767.28;5067141;28;20447;-81
2022/12/21 10:12:56;;;;;;;12.18;6.60;;;;;;;9.68;61.00;100763.66;5065993;28;20036;-81
2022/12/21 10:15:32;;;;;;;10.52;6.15;;;;;;;9.68;60.90;100763.66;5056491;28;20045;-80
2022/12/21 10:18:10;;;;;;;9.73;5.63;;;;;;;9.68;61.33;100762.81;5054310;28;20051;-80
2022/12/21 10:20:48;;;;;;;10.20;5.78;;;;;;;9.68;60.76;100755.47;5062225;28;20041;-80
2022/12/21 10:23:21;;;;;;;12.20;6.53;;;;;;;9.68;61.00;100762.81;5040473;28;20419;-82
2022/12/21 10:25:53;;;;;;;8.02;4.80;;;;;;;9.67;60.82;100764.66;5061043;28;20036;-78
2022/12/21 10:28:31;;;;;;;7.70;4.93;;;;;;;9.67;60.45;100764.66;5056798;28;20592;-79
2022/12/21 10:31:04;;;;;;;7.15;4.25;;;;;;;9.67;60.36;100772.00;5063356;28;20075;-80
2022/12/21 10:33:37;;;;;;;7.45;4.68;;;;;;;9.66;60.86;100773.00;5044940;28;20055;-79
2022/12/21 10:36:14;;;;;;;8.32;4.75;;;;;;;9.63;60.63;100779.59;5063673;28;20120;-81
2022/12/21 10:38:42;;;;;;;8.85;5.10;;;;;;;9.62;60.58;100786.06;5048040;28;20328;-78
2022/12/21 10:41:20;;;;;;;10.55;5.13;;;;;;;9.64;60.12;100785.94;5059497;28;20048;-78
2022/12/21 10:43:51;;;;;;;9.63;5.45;;;;;;;9.60;60.92;100792.63;5037132;28;20052;-81
2022/12/21 10:46:20;;;;;;;10.23;6.05;;;;;;;9.60;60.81;100781.72;5039750;28;20400;-79
2022/12/21 10:48:52;;;;;;;10.68;6.25;;;;;;;9.60;60.48;100773.50;5049922;28;20036;-79
2022/12/21 10:51:28;;;;;;;10.65;6.18;;;;;;;9.61;60.23;100767.06;5042802;28;20072;-80
2022/12/21 10:54:01;;;;;;;10.15;5.82;;;;;;;9.59;60.43;100764.44;5067089;28;20119;-81
2022/12/21 10:56:33;;;;;;;9.48;5.60;;;;;;;9.58;60.66;100768.16;5043809;28;20041;-79
2022/12/21 10:59:07;;;;;;;8.80;4.88;;;;;;;9.59;60.71;100760.84;5046165;28;20506;-79
2022/12/21 11:01:35;;;;;;;13.02;6.15;;;;;;;9.57;60.86;100768.34;5045680;28;20369;-82
2022/12/21 11:04:09;;;;;;;9.35;5.43;;;;;;;9.58;60.81;100773.63;5062551;28;20043;-81
2022/12/21 11:06:39;;;;;;;10.77;5.60;;;;;;;9.58;60.88;100783.69;5065553;28;20429;-80
2022/12/21 11:09:29;;;;;;;9.40;4.85;;;;;;;9.58;60.00;100773.63;5048968;28;20049;-79
2022/12/21 11:11:57;;;;;;;6.88;4.43;;;;;;;9.55;60.82;100768.47;5067525;28;20380;-80
2022/12/21 11:14:25;;;;;;;7.70;4.55;;;;;;;9.55;60.54;100765.72;5046730;28;20048;-78
2022/12/21 11:16:59;;;;;;;9.18;4.75;;;;;;;9.56;60.66;100763.84;5043558;28;20094;-79
2022/12/21 11:19:34;;;;;;;8.85;4.53;;;;;;;9.59;60.35;100760.84;5060681;28;20063;-80
2022/12/21 11:22:07;;;;;;;7.72;4.28;;;;;;;9.58;60.18;100759.97;5062129;28;20037;-80
2022/12/21 11:24:58;;;;;;;7.70;4.07;;;;;;;9.56;61.09;100748.34;5046833;28;20037;-79
2022/12/21 11:27:28;;;;;;;7.57;4.10;;;;;;;9.59;60.96;100755.38;5061798;28;20067;-79
2022/12/21 11:29:59;;;;;;;6.38;3.78;;;;;;;9.59;60.77;100756.25;5064388;28;20052;-80
2022/12/21 11:32:29;;;;;;;8.07;4.20;;;;;;;9.61;60.67;100750.66;5055012;28;20519;-81
2022/12/21 11:34:58;;;;;;;7.72;3.72;;;;;;;9.62;60.88;100752.41;5048787;28;20044;-80
2022/12/21 11:37:45;;;;;;;6.80;3.80;;;;;;;9.64;60.92;100764.06;5049612;28;20503;-80
2022/12/21 11:40:17;;;;;;;8.10;3.67;;;;;;;9.65;60.59;100758.47;5044044;28;20044;-82
2022/12/21 11:42:55;;;;;;;7.72;3.78;;;;;;;9.68;60.58;100754.59;5052973;28;20044;-82
2022/12/21 11:45:26;;;;;;;6.93;3.80;;;;;;;9.69;60.75;100750.88;5065110;28;20037;-81
2022/12/21 11:48:08;;;;;;;6.90;3.80;;;;;;;9.73;60.36;100753.22;5034038;28;20044;-80
2022/12/21 11:50:49;;;;;;;7.95;3.90;;;;;;;9.71;60.40;100747.03;5057015;28;20419;-79
2022/12/21 11:53:39;;;;;;;8.93;4.40;;;;;;;9.76;59.79;100757.53;5049922;28;20044;-79
2022/12/21 11:56:21;;;;;;;8.55;3.75;;;;;;;9.75;59.66;100753.94;5048602;28;20057;-80
2022/12/21 11:59:06;;;;;;;6.55;3.78;;;;;;;9.77;59.57;100759.28;5059201;28;20041;-80
2022/12/21 12:01:44;;;;;;;7.60;3.30;;;;;;;9.77;59.67;100759.28;5035593;28;20131;-81
2022/12/21 12:04:26;;;;;;;7.63;3.25;;;;;;;9.78;59.71;100753.69;5043850;28;20074;-81
2022/12/21 12:07:17;;;;;;;7.88;3.38;;;;;;;9.77;59.52;100759.28;5059966;28;20589;-80
2022/12/21 12:10:02;;;;;;;5.35;2.85;;;;;;;9.78;59.62;100750.94;5051903;28;20325;-80